createdAt,value
2022-09-23T00:00:19.504Z,101200.83
2022-09-23T00:04:06.573Z,101200.04
2022-09-23T00:07:33.530Z,101201.00
2022-09-23T00:11:05.043Z,101200.29
2022-09-23T00:14:31.940Z,101199.13
2022-09-23T00:22:29.195Z,101194.56
2022-09-23T00:26:01.163Z,101191.92
2022-09-23T00:29:28.101Z,101191.23
2022-09-23T00:32:57.044Z,101187.98
2022-09-23T00:36:23.797Z,101186.30
2022-09-23T00:39:51.220Z,101182.69
2022-09-23T00:43:17.832Z,101183.84
2022-09-23T00:46:45.835Z,101182.02
2022-09-23T00:50:18.370Z,101184.31
2022-09-23T00:53:45.630Z,101186.83
2022-09-23T00:57:17.083Z,101187.78
2022-09-23T01:00:44.060Z,101185.86
2022-09-23T01:04:11.341Z,101183.27
2022-09-23T01:07:38.378Z,101180.79
2022-09-23T01:11:14.465Z,101181.05
2022-09-23T01:14:54.335Z,101189.88
2022-09-23T01:18:34.758Z,101186.20
2022-09-23T01:22:11.273Z,101179.64
2022-09-23T01:25:57.792Z,101177.20
2022-09-23T01:29:48.040Z,101178.45
2022-09-23T01:33:21.442Z,101177.66
2022-09-23T01:36:54.087Z,101177.20
2022-09-23T01:40:25.969Z,101174.07
2022-09-23T01:44:00.947Z,101171.74
2022-09-23T01:47:32.536Z,101173.94
2022-09-23T01:51:03.805Z,101172.73
2022-09-23T01:54:39.003Z,101171.39
2022-09-23T01:58:10.329Z,101170.23
2022-09-23T02:01:43.268Z,101167.17
2022-09-23T02:05:15.871Z,101166.55
2022-09-23T02:08:47.435Z,101161.29
2022-09-23T02:12:20.522Z,101161.89
2022-09-23T02:15:52.104Z,101162.66
2022-09-23T02:19:28.624Z,101159.33
2022-09-23T02:23:03.597Z,101156.33
2022-09-23T02:26:36.359Z,101157.81
2022-09-23T02:30:09.856Z,101156.42
2022-09-23T02:33:40.937Z,101158.25
2022-09-23T02:37:17.799Z,101157.06
2022-09-23T02:40:52.630Z,101154.83
2022-09-23T02:44:22.900Z,101149.32
2022-09-23T02:47:53.386Z,101148.64
2022-09-23T02:51:20.553Z,101144.27
2022-09-23T02:54:48.338Z,101140.29
2022-09-23T02:58:16.026Z,101137.48
2022-09-23T03:01:56.683Z,101137.30
2022-09-23T03:05:30.405Z,101133.90
2022-09-23T03:09:02.129Z,101135.66
2022-09-23T03:12:37.726Z,101130.77
2022-09-23T03:16:12.383Z,101131.24
2022-09-23T03:19:46.182Z,101131.70
2022-09-23T03:23:17.789Z,101131.27
2022-09-23T03:26:48.495Z,101124.46
2022-09-23T03:30:16.436Z,101125.23
2022-09-23T03:33:48.616Z,101124.61
2022-09-23T03:37:19.823Z,101119.35
2022-09-23T03:40:51.296Z,101113.55
2022-09-23T03:44:19.801Z,101114.11
2022-09-23T03:47:48.012Z,101113.80
2022-09-23T03:51:24.071Z,101112.77
2022-09-23T03:54:52.353Z,101113.11
2022-09-23T03:58:18.898Z,101112.36
2022-09-23T04:01:46.208Z,101110.24
2022-09-23T04:05:14.633Z,101110.36
2022-09-23T04:08:42.381Z,101112.77
2022-09-23T04:12:09.577Z,101109.88
2022-09-23T04:15:36.265Z,101107.88
2022-09-23T04:19:04.943Z,101105.70
2022-09-23T04:22:32.047Z,101107.16
2022-09-23T04:25:59.224Z,101110.34
2022-09-23T04:29:26.444Z,101108.54
2022-09-23T04:32:55.565Z,101104.19
2022-09-23T04:36:22.983Z,101106.38
2022-09-23T04:39:49.445Z,101106.50
2022-09-23T04:43:16.610Z,101103.30
2022-09-23T04:46:47.745Z,101103.36
2022-09-23T04:50:14.513Z,101106.20
2022-09-23T04:53:43.548Z,101114.48
2022-09-23T04:57:11.217Z,101117.58
2022-09-23T05:00:38.300Z,101119.27
2022-09-23T05:04:07.944Z,101118.17
2022-09-23T05:07:34.472Z,101122.55
2022-09-23T05:11:02.768Z,101120.05
2022-09-23T05:14:29.794Z,101117.91
2022-09-23T05:17:58.966Z,101118.50
2022-09-23T05:21:29.412Z,101115.64
2022-09-23T05:24:56.714Z,101108.35
2022-09-23T05:28:23.505Z,101111.90
2022-09-23T05:31:50.580Z,101114.42
2022-09-23T05:35:17.516Z,101116.98
2022-09-23T05:38:44.426Z,101119.89
2022-09-23T05:42:12.665Z,101119.18
2022-09-23T05:45:39.868Z,101119.86
2022-09-23T05:49:07.675Z,101121.73
2022-09-23T05:52:35.163Z,101125.34
2022-09-23T05:56:01.946Z,101124.61
2022-09-23T05:59:28.658Z,101129.04
2022-09-23T06:02:55.603Z,101128.98
2022-09-23T06:06:27.192Z,101130.55
2022-09-23T06:09:54.184Z,101125.90
2022-09-23T06:13:20.883Z,101127.60
2022-09-23T06:16:47.919Z,101130.13
2022-09-23T06:20:14.673Z,101126.77
2022-09-23T06:23:42.247Z,101133.70
2022-09-23T06:27:11.210Z,101138.60
2022-09-23T06:30:42.695Z,101138.45
2022-09-23T06:34:13.203Z,101137.76
2022-09-23T06:37:41.112Z,101134.33
2022-09-23T06:41:08.209Z,101131.77
2022-09-23T06:44:34.854Z,101127.17
2022-09-23T06:48:05.186Z,101125.03
2022-09-23T06:51:31.895Z,101122.56
2022-09-23T06:54:58.887Z,101117.33
2022-09-23T06:58:27.146Z,101121.27
2022-09-23T07:01:54.148Z,101123.97
2022-09-23T07:05:22.655Z,101117.90
2022-09-23T07:08:51.461Z,101114.54
2022-09-23T07:12:18.513Z,101112.16
2022-09-23T07:15:50.963Z,101113.73
2022-09-23T07:19:17.986Z,101112.77
2022-09-23T07:22:44.520Z,101111.98
2022-09-23T07:26:11.389Z,101112.54
2022-09-23T07:29:47.105Z,101108.86
2022-09-23T07:33:28.294Z,101108.40
2022-09-23T07:36:58.457Z,101107.23
2022-09-23T07:40:25.224Z,101108.90
2022-09-23T07:43:55.956Z,101109.20
2022-09-23T07:47:23.514Z,101105.64
2022-09-23T07:50:50.841Z,101109.75
2022-09-23T07:54:18.952Z,101113.73
2022-09-23T07:57:46.621Z,101113.11
2022-09-23T08:01:14.770Z,101111.97
2022-09-23T08:04:42.475Z,101108.64
2022-09-23T08:08:09.300Z,101108.42
2022-09-23T08:11:42.011Z,101105.35
2022-09-23T08:15:10.227Z,101104.27
2022-09-23T08:18:37.353Z,101099.66
2022-09-23T08:22:04.046Z,101097.98
2022-09-23T08:25:34.335Z,101096.05
2022-09-23T08:29:02.614Z,101095.14
2022-09-23T08:32:29.358Z,101089.83
2022-09-23T08:36:00.083Z,101087.80
2022-09-23T08:39:27.154Z,101089.77
2022-09-23T08:42:54.039Z,101089.54
2022-09-23T08:46:28.120Z,101084.44
2022-09-23T08:50:07.665Z,101088.14
2022-09-23T08:53:37.513Z,101087.51
2022-09-23T08:57:07.182Z,101084.64
2022-09-23T09:00:40.171Z,101087.73
2022-09-23T09:04:23.291Z,101083.27
2022-09-23T09:07:50.823Z,101082.38
2022-09-23T09:11:19.459Z,101081.58
2022-09-23T09:14:59.254Z,101077.80
2022-09-23T09:18:27.462Z,101080.55
2022-09-23T09:21:56.454Z,101077.70
2022-09-23T09:25:34.471Z,101079.05
2022-09-23T09:29:30.757Z,101073.08
2022-09-23T09:32:59.541Z,101071.86
2022-09-23T09:36:36.264Z,101066.08
2022-09-23T09:40:03.620Z,101064.79
2022-09-23T09:43:32.361Z,101064.36
2022-09-23T09:47:21.176Z,101060.89
2022-09-23T09:50:52.891Z,101055.95
2022-09-23T09:54:27.277Z,101046.92
2022-09-23T09:58:02.006Z,101049.09
2022-09-23T10:01:31.659Z,101044.28
2022-09-23T10:05:01.808Z,101043.69
2022-09-23T10:08:35.336Z,101039.68
2022-09-23T10:12:18.815Z,101032.81
2022-09-23T10:15:46.919Z,101032.79
2022-09-23T10:19:28.676Z,101028.50
2022-09-23T10:22:56.994Z,101025.77
2022-09-23T10:26:33.808Z,101024.43
2022-09-23T10:30:21.951Z,101016.86
2022-09-23T10:33:54.841Z,101009.84
2022-09-23T10:37:28.247Z,101014.79
2022-09-23T10:41:15.379Z,101009.08
2022-09-23T10:45:11.927Z,101008.42
2022-09-23T10:48:52.003Z,101007.66
2022-09-23T10:52:36.982Z,101009.84
2022-09-23T10:56:17.323Z,101006.23
2022-09-23T10:59:57.305Z,101003.11
2022-09-23T11:03:49.491Z,100998.25
2022-09-23T11:07:26.539Z,100993.75
2022-09-23T11:11:13.745Z,100988.33
2022-09-23T11:15:18.932Z,100990.21
2022-09-23T11:19:05.986Z,100980.23
2022-09-23T11:22:57.534Z,100974.57
2022-09-23T11:26:41.180Z,100973.85
2022-09-23T11:30:24.448Z,100964.02
2022-09-23T11:34:11.564Z,100966.05
2022-09-23T11:37:44.227Z,100962.04
2022-09-23T11:41:24.471Z,100962.06
2022-09-23T11:44:59.714Z,100961.11
2022-09-23T11:48:32.555Z,100956.25
2022-09-23T11:52:09.827Z,100950.17
2022-09-23T11:55:55.493Z,100948.17
2022-09-23T11:59:40.659Z,100942.06
2022-09-23T12:03:11.993Z,100939.59
2022-09-23T12:06:47.072Z,100934.95
2022-09-23T12:10:17.507Z,100931.02
2022-09-23T12:13:58.388Z,100924.52
2022-09-23T12:17:40.204Z,100921.17
2022-09-23T12:21:49.108Z,100918.54
2022-09-23T12:25:34.931Z,100913.83
2022-09-23T12:29:06.998Z,100905.91
2022-09-23T12:32:35.391Z,100903.58
2022-09-23T12:36:08.503Z,100903.95
2022-09-23T12:39:38.826Z,100900.44
2022-09-23T12:43:05.912Z,100896.73
2022-09-23T12:46:33.337Z,100896.45
2022-09-23T12:50:01.624Z,100901.54
2022-09-23T12:53:55.739Z,100902.80
2022-09-23T12:57:44.144Z,100899.48
2022-09-23T13:01:19.869Z,100896.57
2022-09-23T13:05:18.458Z,100893.66
2022-09-23T13:08:47.596Z,100886.48
2022-09-23T13:12:23.063Z,100882.92
2022-09-23T13:15:51.376Z,100881.04
2022-09-23T13:19:50.381Z,100876.92
2022-09-23T13:23:35.892Z,100872.07
2022-09-23T13:27:14.673Z,100868.52
2022-09-23T13:30:52.564Z,100861.17
2022-09-23T13:34:23.264Z,100854.81
2022-09-23T13:37:54.598Z,100851.01
2022-09-23T13:41:28.876Z,100846.99
2022-09-23T13:44:59.484Z,100847.27
2022-09-23T13:48:29.602Z,100841.79
2022-09-23T13:51:58.034Z,100837.00
2022-09-23T13:55:30.402Z,100837.91
2022-09-23T13:59:24.314Z,100841.81
2022-09-23T14:02:53.354Z,100836.21
2022-09-23T14:06:31.291Z,100827.83
2022-09-23T14:09:58.900Z,100831.37
2022-09-23T14:13:36.816Z,100828.45
2022-09-23T14:17:05.219Z,100825.39
2022-09-23T14:20:35.088Z,100822.70
2022-09-23T14:24:13.681Z,100816.97
2022-09-23T14:27:42.291Z,100822.35
2022-09-23T14:31:09.517Z,100817.04
2022-09-23T14:34:55.055Z,100813.92
2022-09-23T14:38:48.348Z,100810.98
2022-09-23T14:42:17.388Z,100805.42
2022-09-23T14:45:47.627Z,100803.77
2022-09-23T14:49:19.524Z,100800.62
2022-09-23T14:52:53.589Z,100797.00
2022-09-23T14:56:23.119Z,100791.50
2022-09-23T14:59:56.232Z,100788.07
2022-09-23T15:03:23.828Z,100781.05
2022-09-23T15:06:56.276Z,100782.88
2022-09-23T15:10:28.561Z,100777.50
2022-09-23T15:13:58.117Z,100774.96
2022-09-23T15:17:35.264Z,100770.58
2022-09-23T15:21:11.121Z,100772.71
2022-09-23T15:24:45.245Z,100768.91
2022-09-23T15:28:27.759Z,100772.98
2022-09-23T15:32:00.623Z,100769.59
2022-09-23T15:35:28.286Z,100770.65
2022-09-23T15:38:57.981Z,100768.56
2022-09-23T15:42:26.540Z,100769.67
2022-09-23T15:45:57.364Z,100768.02
2022-09-23T15:49:34.377Z,100762.64
2022-09-23T15:53:06.454Z,100761.70
2022-09-23T15:56:35.362Z,100756.87
2022-09-23T16:00:04.125Z,100751.07
2022-09-23T16:03:40.443Z,100753.55
2022-09-23T16:07:10.738Z,100756.94
2022-09-23T16:10:41.215Z,100757.91
2022-09-23T16:14:11.453Z,100756.27
2022-09-23T16:17:39.894Z,100757.92
2022-09-23T16:21:12.418Z,100752.00
2022-09-23T16:24:44.068Z,100752.95
2022-09-23T16:28:11.134Z,100758.45
2022-09-23T16:31:39.063Z,100757.77
2022-09-23T16:35:08.156Z,100759.92
2022-09-23T16:38:39.838Z,100752.09
2022-09-23T16:42:07.691Z,100756.55
2022-09-23T16:45:35.034Z,100754.99
2022-09-23T16:49:02.582Z,100760.77
2022-09-23T16:52:31.886Z,100761.85
2022-09-23T16:56:01.557Z,100760.75
2022-09-23T16:59:49.215Z,100760.45
2022-09-23T17:03:34.053Z,100762.08
2022-09-23T17:07:01.467Z,100751.90
2022-09-23T17:10:28.912Z,100759.00
2022-09-23T17:13:56.915Z,100758.59
2022-09-23T17:17:23.765Z,100754.75
2022-09-23T17:21:00.289Z,100752.47
2022-09-23T17:24:27.752Z,100752.38
2022-09-23T17:27:56.596Z,100754.63
2022-09-23T17:31:24.772Z,100757.41
2022-09-23T17:34:51.631Z,100757.10
2022-09-23T17:38:18.566Z,100754.98
2022-09-23T17:41:46.940Z,100753.62
2022-09-23T17:45:14.168Z,100754.58
2022-09-23T17:48:44.427Z,100749.70
2022-09-23T17:52:13.784Z,100754.38
2022-09-23T17:55:44.549Z,100755.83
2022-09-23T17:59:17.594Z,100751.63
2022-09-23T18:02:45.123Z,100757.19
2022-09-23T18:06:17.157Z,100759.35
2022-09-23T18:09:44.658Z,100761.52
2022-09-23T18:13:11.654Z,100756.89
2022-09-23T18:16:42.295Z,100758.02
2022-09-23T18:20:12.540Z,100758.48
2022-09-23T18:23:39.340Z,100761.98
2022-09-23T18:27:08.081Z,100763.97
2022-09-23T18:30:35.105Z,100764.04
2022-09-23T18:34:03.592Z,100763.56
2022-09-23T18:37:33.721Z,100759.73
2022-09-23T18:41:04.796Z,100759.42
2022-09-23T18:44:34.106Z,100755.88
2022-09-23T18:48:18.731Z,100754.75
2022-09-23T18:51:54.819Z,100754.02
2022-09-23T18:55:23.064Z,100757.96
2022-09-23T18:58:52.789Z,100756.00
2022-09-23T19:02:20.139Z,100757.61
2022-09-23T19:05:47.112Z,100759.71
2022-09-23T19:09:16.052Z,100755.89
2022-09-23T19:12:43.217Z,100757.73
2022-09-23T19:16:12.812Z,100755.29
2022-09-23T19:19:40.577Z,100754.42
2022-09-23T19:23:08.151Z,100753.40
2022-09-23T19:26:37.812Z,100752.62
2022-09-23T19:30:07.444Z,100752.27
2022-09-23T19:33:33.827Z,100750.71
2022-09-23T19:37:01.693Z,100749.33
2022-09-23T19:40:29.932Z,100747.95
2022-09-23T19:44:03.863Z,100749.63
2022-09-23T19:47:32.344Z,100749.05
2022-09-23T19:50:59.475Z,100747.46
2022-09-23T19:54:27.838Z,100744.52
2022-09-23T19:57:55.785Z,100744.27
2022-09-23T20:01:22.475Z,100746.45
2022-09-23T20:04:51.535Z,100743.23
2022-09-23T20:08:20.292Z,100741.46
2022-09-23T20:11:47.353Z,100741.16
2022-09-23T20:15:15.255Z,100735.11
2022-09-23T20:18:44.526Z,100737.20
2022-09-23T20:22:32.955Z,100736.15
2022-09-23T20:26:19.804Z,100738.60
2022-09-23T20:29:47.055Z,100734.30
2022-09-23T20:33:15.995Z,100729.31
2022-09-23T20:36:43.881Z,100725.27
2022-09-23T20:40:12.421Z,100723.52
2022-09-23T20:43:40.037Z,100715.94
2022-09-23T20:47:09.020Z,100713.90
2022-09-23T20:50:36.363Z,100713.53
2022-09-23T20:54:04.394Z,100709.74
2022-09-23T20:57:31.743Z,100709.93
2022-09-23T21:01:04.121Z,100711.88
2022-09-23T21:04:32.175Z,100712.67
2022-09-23T21:08:02.819Z,100710.60
2022-09-23T21:11:30.964Z,100713.56
2022-09-23T21:14:58.017Z,100717.38
2022-09-23T21:18:25.632Z,100717.52
2022-09-23T21:21:52.524Z,100716.52
2022-09-23T21:25:28.799Z,100717.34
2022-09-23T21:28:59.260Z,100716.66
2022-09-23T21:32:26.295Z,100718.81
2022-09-23T21:35:58.388Z,100724.62
2022-09-23T21:39:29.924Z,100724.16
2022-09-23T21:43:00.898Z,100722.58
2022-09-23T21:46:28.517Z,100723.80
2022-09-23T21:49:55.648Z,100725.73
2022-09-23T21:53:23.908Z,100726.05
2022-09-23T21:56:50.960Z,100727.78
2022-09-23T22:00:20.890Z,100722.67
2022-09-23T22:03:50.817Z,100723.48
2022-09-23T22:07:17.779Z,100721.95
2022-09-23T22:10:45.225Z,100718.80
2022-09-23T22:14:14.547Z,100718.05
2022-09-23T22:17:42.116Z,100714.15
2022-09-23T22:21:10.292Z,100711.63
2022-09-23T22:24:37.125Z,100714.36
2022-09-23T22:28:21.890Z,100712.89
2022-09-23T22:32:05.987Z,100708.13
2022-09-23T22:35:32.732Z,100705.69
2022-09-23T22:39:03.217Z,100702.14
2022-09-23T22:42:30.780Z,100701.39
2022-09-23T22:45:57.581Z,100700.18
2022-09-23T22:49:25.252Z,100699.98
2022-09-23T22:52:56.095Z,100698.59
2022-09-23T22:56:23.332Z,100696.64
2022-09-23T22:59:50.201Z,100694.70
2022-09-23T23:03:20.710Z,100694.38
2022-09-23T23:06:48.925Z,100690.26
2022-09-23T23:10:17.214Z,100686.56
2022-09-23T23:13:44.673Z,100685.58
2022-09-23T23:17:11.261Z,100683.14
2022-09-23T23:20:38.140Z,100684.27
2022-09-23T23:24:06.570Z,100684.22
2022-09-23T23:27:33.199Z,100683.83
2022-09-23T23:31:05.902Z,100684.55
2022-09-23T23:34:34.165Z,100680.66
2022-09-23T23:38:00.500Z,100684.66
2022-09-23T23:41:28.183Z,100678.40
2022-09-23T23:44:55.434Z,100676.23
2022-09-23T23:48:22.947Z,100673.55
2022-09-23T23:51:50.359Z,100671.83
2022-09-23T23:55:17.864Z,100676.78
2022-09-23T23:58:45.782Z,100673.34
